Latest Weather Observations for Jervis Bay Airfield

IDN60801

Issued at 2:53 pm EDT Tuesday 18 January 2022 (issued every 10 minutes, with the page automatically refreshed every 10 minutes)

About weather observations | Map of weather stations | Latest weather observations for NSW | Other Formats
Station Details ID: 068264 Name: JERVIS BAY AIRFIELD AWS Lat: -35.14 Lon: 150.70 Height: 57.18 m
Data from the previous 72 hours. | See also: Recent months at Jervis Bay Airfield
Date/Time
EDT
Temp
°C
App
Temp
°C
Dew
Point
°C
Rel
Hum
%
Delta-T
°C
Wind Press
QNH
hPa
Press
MSL
hPa
Rain since
9am
mm
Dir  Spd
km/h
Gust
km/h
Spd
kts
Gust
kts
18/02:30pm 18.2 16.8 17.9 98 0.2 SSW 22 33 12 18 1014.4 1014.2 3.2
18/02:00pm 18.0 16.5 17.7 98 0.2 SSW 22 35 12 19 1014.4 1014.2 2.0
18/01:30pm 18.1 16.6 17.8 98 0.2 SW 22 30 12 16 1014.5 1014.3 1.8
18/01:00pm 18.0 16.9 17.7 98 0.2 SW 20 33 11 18 1014.8 1014.6 1.6
18/12:30pm 18.0 16.9 17.7 98 0.2 SW 20 33 11 18 1015.0 1014.8 1.4
18/12:00pm 18.2 17.2 17.9 98 0.2 SW 20 32 11 17 1014.8 1014.6 1.0
18/11:30am 18.1 17.2 17.8 98 0.2 SW 19 30 10 16 1014.8 1014.6 1.0
18/11:22am 18.3 17.9 18.0 98 0.2 SW 17 30 9 16 1015.2 1015.0 0.8
18/11:11am 18.2 17.2 17.9 98 0.2 SW 20 26 11 14 1014.9 1014.7 0.8
18/11:00am 18.3 17.5 18.0 98 0.2 SW 19 26 10 14 1014.7 1014.5 0.8
18/10:30am 18.4 17.6 18.1 98 0.2 SW 19 26 10 14 1014.6 1014.4 0.6
18/10:13am 18.3 16.9 18.0 98 0.2 SW 22 32 12 17 1014.6 1014.4 0.2
18/10:08am 18.4 17.1 18.1 98 0.2 SW 22 28 12 15 1014.6 1014.4 0.2
18/10:00am 18.5 17.2 18.2 98 0.2 SW 22 30 12 16 1014.4 1014.2 0.2
18/09:30am 18.8 18.2 18.5 98 0.2 SW 19 28 10 15 1014.2 1014.0 0.0
18/09:00am 18.7 18.1 18.4 98 0.2 SW 19 28 10 15 1014.0 1013.8 1.0
18/08:30am 18.9 18.7 18.6 98 0.2 SW 17 24 9 13 1013.8 1013.6 0.8
18/08:00am 18.9 18.2 18.6 98 0.2 SW 20 28 11 15 1013.5 1013.3 0.8
18/07:30am 19.1 18.1 18.8 98 0.2 SSW 22 32 12 17 1013.2 1013.0 0.8
18/07:00am 19.0 17.9 18.7 98 0.2 SSW 22 32 12 17 1013.0 1012.8 0.6
18/06:30am 19.2 18.6 18.9 98 0.2 SSW 20 30 11 16 1012.7 1012.5 0.2
18/06:00am 19.2 18.2 18.9 98 0.2 SW 22 32 12 17 1012.3 1012.1 0.0
18/05:30am 20.0 19.4 19.7 98 0.2 SW 22 33 12 18 1012.0 1011.8 0.0
18/05:00am 20.2 20.6 19.9 98 0.2 SSW 17 24 9 13 1011.5 1011.3 0.0
18/04:30am 20.2 20.6 19.9 98 0.2 SW 17 24 9 13 1011.3 1011.1 0.0
18/04:00am 20.4 20.0 20.1 98 0.2 SSW 22 32 12 17 1011.1 1010.9 0.0
18/03:30am 20.4 20.0 20.1 98 0.2 SW 22 33 12 18 1011.1 1010.9 0.0
18/03:00am 20.3 20.2 20.0 98 0.2 SW 20 32 11 17 1011.2 1011.0 0.0
18/02:30am 20.6 20.7 20.3 98 0.2 SSW 20 30 11 16 1011.1 1010.9 0.0
18/02:00am 20.9 20.7 20.6 98 0.2 SSW 22 35 12 19 1011.3 1011.1 0.0
18/01:30am 20.9 20.0 20.6 98 0.2 SW 26 39 14 21 1011.6 1011.4 0.0
18/01:00am 21.2 20.8 20.9 98 0.2 SW 24 33 13 18 1011.6 1011.4 0.0
18/12:40am 21.5 21.3 21.2 98 0.2 SSW 24 28 13 15 1011.5 1011.3 0.0
18/12:36am 21.6 21.4 21.3 98 0.2 SSW 24 32 13 17 1011.5 1011.3 0.0
18/12:30am 22.0 22.4 21.7 98 0.2 SSW 22 32 12 17 1011.3 1011.1 0.0
18/12:00am 23.7 26.6 21.0 85 1.8 SW 7 13 4 7 1011.4 1011.2 0.0
 
Date/Time
EDT
Temp
°C
App
Temp
°C
Dew
Point
°C
Rel
Hum
%
Delta-T
°C
Wind Press
QNH
hPa
Press
MSL
hPa
Rain since
9am
mm
Dir  Spd
km/h
Gust
km/h
Spd
kts
Gust
kts
17/11:30pm 23.7 25.2 21.2 86 1.6 SSW 15 17 8 9 1011.6 1011.4 0.0
17/11:00pm 23.8 26.1 22.1 90 1.1 WSW 13 17 7 9 1011.8 1011.6 0.0
17/10:30pm 23.9 27.7 22.7 93 0.8 NW 7 15 4 8 1011.5 1011.3 0.0
17/10:00pm 24.6 27.1 22.5 88 1.4 S 13 20 7 11 1011.2 1011.0 0.0
17/09:30pm 23.7 27.4 23.2 97 0.3 S 9 11 5 6 1010.8 1010.6 0.0
17/09:00pm 23.1 27.9 22.8 98 0.2 ESE 2 9 1 5 1010.7 1010.5 0.0
17/08:30pm 23.0 28.1 22.7 98 0.2 CALM 0 0 0 0 1010.5 1010.3 0.0
17/08:00pm 23.0 26.8 22.7 98 0.2 NE 7 11 4 6 1010.2 1010.0 0.0
17/07:30pm 23.3 26.9 23.0 98 0.2 ENE 9 13 5 7 1009.7 1009.5 0.0
17/07:00pm 23.4 26.6 23.1 98 0.2 NNE 11 17 6 9 1009.3 1009.1 0.0
17/06:30pm 23.6 27.1 22.9 96 0.5 NE 9 15 5 8 1008.8 1008.6 0.0
17/06:00pm 23.8 26.2 23.0 95 0.5 NE 15 19 8 10 1008.7 1008.5 0.0
17/05:30pm 23.7 26.1 23.0 96 0.5 NE 15 20 8 11 1008.6 1008.4 0.0
17/05:00pm 24.0 25.9 23.5 97 0.3 NE 19 22 10 12 1008.5 1008.3 0.0
17/04:30pm 24.2 26.1 23.5 96 0.5 NNE 19 24 10 13 1008.3 1008.1 0.0
17/04:00pm 24.3 25.4 23.1 93 0.8 NE 22 28 12 15 1008.2 1008.0 0.0
17/03:30pm 25.1 27.0 23.5 91 1.1 NNE 19 24 10 13 1008.3 1008.1 0.0
17/03:00pm 25.1 26.6 23.7 92 1.0 NNE 22 30 12 16 1008.2 1008.0 0.0
17/02:30pm 24.9 25.9 22.8 88 1.4 NE 22 28 12 15 1008.4 1008.2 0.0
17/02:00pm 25.1 26.3 23.2 89 1.3 NNE 22 30 12 16 1008.6 1008.4 0.0
17/01:30pm 25.1 26.7 22.8 87 1.6 NNE 19 26 10 14 1008.9 1008.7 0.0
17/01:00pm 25.0 26.4 22.5 86 1.7 NNE 19 30 10 16 1009.1 1008.9 0.0
17/12:30pm 25.1 26.1 22.8 87 1.6 NE 22 28 12 15 1009.4 1009.2 0.0
17/12:00pm 25.5 26.2 22.2 82 2.2 NNE 22 30 12 16 1009.6 1009.4 0.0
17/11:30am 24.5 25.8 22.4 88 1.4 NNE 19 24 10 13 1009.7 1009.5 0.0
17/11:00am 24.5 24.7 22.0 86 1.7 NE 24 32 13 17 1009.6 1009.4 0.0
17/10:30am 24.8 24.6 21.3 81 2.3 NE 24 32 13 17 1009.7 1009.5 0.0
17/10:00am 24.4 24.6 21.3 83 2.1 NE 22 30 12 16 1009.7 1009.5 0.0
17/09:30am 23.7 24.5 21.4 87 1.5 NNE 19 24 10 13 1009.7 1009.5 0.0
17/09:00am 23.2 24.5 21.6 91 1.1 NNE 17 24 9 13 1010.0 1009.8 0.0
17/08:30am 22.7 24.2 21.2 91 1.0 NNE 15 20 8 11 1010.1 1009.9 0.0
17/08:00am 21.3 22.7 21.0 98 0.2 N 15 19 8 10 1010.3 1010.1 0.0
17/07:38am 20.7 22.1 20.4 98 0.2 NNE 13 19 7 10 1010.2 1010.0 0.0
17/07:30am 20.9 22.4 20.6 98 0.2 NE 13 15 7 8 1010.0 1009.8 0.0
17/07:08am 20.5 22.6 20.2 98 0.2 NE 9 11 5 6 1010.1 1009.9 0.0
17/07:00am 20.2 22.2 19.9 98 0.2 NE 9 13 5 7 1010.0 1009.8 0.0
17/06:30am 19.1 20.9 18.8 98 0.2 ENE 7 9 4 5 1008.6 1008.4 0.0
17/06:00am 18.9 20.6 18.6 98 0.2 NE 7 9 4 5 1009.1 1008.9 0.0
17/05:51am 18.3 19.8 18.0 98 0.2 ENE 7 9 4 5 1009.1 1008.9 0.0
17/05:30am 18.4 20.1 18.1 98 0.2 W 6 9 3 5 1009.3 1009.1 0.0
17/05:00am 18.9 21.2 18.6 98 0.2 WSW 4 6 2 3 1009.5 1009.3 0.0
17/04:30am 19.1 22.3 18.8 98 0.2 CALM 0 0 0 0 1009.5 1009.3 0.0
17/04:00am 19.3 22.6 19.0 98 0.2 CALM 0 0 0 0 1009.4 1009.2 0.0
17/03:30am 19.4 22.7 19.1 98 0.2 CALM 0 0 0 0 1009.8 1009.6 0.0
17/03:00am 19.8 22.9 19.5 98 0.2 WSW 2 6 1 3 1009.9 1009.7 0.0
17/02:30am 20.1 22.6 19.8 98 0.2 WSW 6 6 3 3 1010.5 1010.3 0.0
17/02:00am 20.3 22.9 20.0 98 0.2 WSW 6 9 3 5 1010.8 1010.6 0.0
17/01:30am 20.4 22.5 20.1 98 0.2 SW 9 13 5 7 1010.9 1010.7 0.0
17/01:00am 20.7 23.3 20.4 98 0.2 SSW 7 9 4 5 1011.0 1010.8 0.0
17/12:30am 20.8 24.0 20.5 98 0.2 SW 4 6 2 3 1010.7 1010.5 0.0
17/12:00am 21.4 23.9 21.1 98 0.2 SSW 9 9 5 5 1010.8 1010.6 0.0
 
Date/Time
EDT
Temp
°C
App
Temp
°C
Dew
Point
°C
Rel
Hum
%
Delta-T
°C
Wind Press
QNH
hPa
Press
MSL
hPa
Rain since
9am
mm
Dir  Spd
km/h
Gust
km/h
Spd
kts
Gust
kts
16/11:30pm 21.7 24.4 21.4 98 0.2 W 9 11 5 6 1011.5 1011.3 0.0
16/11:00pm 21.7 25.0 21.4 98 0.2 WSW 6 7 3 4 1011.7 1011.5 0.0
16/10:30pm 21.6 26.0 21.3 98 0.2 CALM 0 0 0 0 1011.3 1011.1 0.0
16/10:00pm 21.9 25.1 21.6 98 0.2 SSW 7 11 4 6 1011.6 1011.4 0.0
16/09:30pm 22.0 24.9 21.7 98 0.2 SSW 9 11 5 6 1011.0 1010.8 0.0
16/09:00pm 22.3 25.3 22.0 98 0.2 S 9 9 5 5 1010.6 1010.4 0.0
16/08:30pm 22.3 25.3 22.0 98 0.2 SSE 9 11 5 6 1010.3 1010.1 0.0
16/08:00pm 22.3 24.6 22.0 98 0.2 SE 13 15 7 8 1009.9 1009.7 0.0
16/07:30pm 22.5 24.3 21.8 96 0.5 SSE 15 17 8 9 1009.8 1009.6 0.0
16/07:00pm 22.6 24.8 21.8 95 0.5 SE 13 20 7 11 1009.4 1009.2 0.0
16/06:52pm 22.5 24.1 21.5 94 0.7 SSE 15 20 8 11 1009.2 1009.0 0.0
16/06:30pm 22.8 24.7 21.4 92 0.9 SSE 13 17 7 9 1009.0 1008.8 0.0
16/06:24pm 23.0 25.0 21.5 91 1.0 SSE 13 17 7 9 1008.9 1008.7 0.0
16/06:00pm 23.2 24.1 21.5 90 1.1 SE 19 24 10 13 1008.8 1008.6 0.0
16/05:30pm 23.3 24.3 21.0 87 1.5 SSE 17 22 9 12 1008.7 1008.5 0.0
16/05:27pm 23.5 25.0 21.2 87 1.5 SSE 15 22 8 12 1008.7 1008.5 0.0
16/05:00pm 23.2 23.7 20.9 87 1.5 SSE 19 24 10 13 1008.6 1008.4 0.0
16/04:34pm 23.9 25.1 21.4 86 1.7 SSE 17 22 9 12 1008.7 1008.5 0.0
16/04:30pm 23.6 24.4 21.3 87 1.5 SSE 19 22 10 12 1008.7 1008.5 0.0
16/04:00pm 23.6 24.9 21.7 89 1.3 S 17 24 9 13 1008.8 1008.6 0.0
16/03:30pm 24.0 24.9 20.9 83 2.0 S 17 22 9 12 1008.9 1008.7 0.0
16/03:00pm 24.0 25.0 21.7 87 1.5 SW 19 22 10 12 1009.2 1009.0 0.0
16/02:55pm 23.7 24.5 21.4 87 1.5 SW 19 22 10 12 1009.3 1009.1 0.0
16/02:30pm 23.4 23.9 20.9 86 1.6 SW 19 24 10 13 1009.4 1009.2 0.0
16/02:00pm 23.1 24.7 21.4 90 1.1 SW 15 22 8 12 1009.5 1009.3 0.0
16/01:30pm 22.7 23.5 21.7 94 0.7 SSW 20 28 11 15 1009.8 1009.6 0.0
16/01:00pm 21.6 21.9 20.8 95 0.5 SSW 20 28 11 15 1010.1 1009.9 0.0
16/12:56pm 21.6 21.8 21.3 98 0.2 SSW 22 30 12 16 1010.2 1010.0 0.0
16/12:30pm 21.0 21.3 20.7 98 0.2 SSW 20 30 11 16 1010.2 1010.0 0.0
16/12:06pm 20.8 21.1 20.5 98 0.2 SW 19 26 10 14 1010.2 1010.0 0.0
16/12:00pm 20.9 21.7 20.6 98 0.2 SW 17 26 9 14 1010.2 1010.0 0.0
16/11:30am 20.9 21.7 20.6 98 0.2 SW 17 20 9 11 1010.1 1009.9 0.0
16/11:00am 20.7 21.4 20.4 98 0.2 SW 17 22 9 12 1009.9 1009.7 0.0
16/10:43am 20.6 21.6 20.3 98 0.2 SW 15 20 8 11 1009.9 1009.7 0.0
16/10:30am 20.4 20.9 20.1 98 0.2 SW 17 24 9 13 1009.8 1009.6 0.0
16/10:12am 20.6 21.2 20.3 98 0.2 SW 17 22 9 12 1009.8 1009.6 0.0
16/10:00am 20.5 20.7 20.2 98 0.2 SW 19 26 10 14 1009.6 1009.4 0.0
16/09:44am 20.3 20.8 20.0 98 0.2 SW 17 30 9 16 1009.5 1009.3 0.0
16/09:30am 20.4 20.9 20.1 98 0.2 SW 17 24 9 13 1009.6 1009.4 0.0
16/09:27am 20.3 20.8 20.0 98 0.2 SW 17 22 9 12 1009.6 1009.4 0.0
16/09:00am 20.4 21.3 20.1 98 0.2 SW 15 20 8 11 1009.5 1009.3 1.8
16/08:30am 20.1 20.9 19.8 98 0.2 SW 15 20 8 11 1009.4 1009.2 1.8
16/08:27am 20.1 21.3 19.8 98 0.2 SW 13 20 7 11 1009.3 1009.1 1.8
16/08:00am 20.1 21.3 19.8 98 0.2 SW 13 19 7 10 1009.0 1008.8 1.8
16/07:30am 20.1 21.3 19.8 98 0.2 SW 13 17 7 9 1008.8 1008.6 1.6
16/07:00am 20.1 21.3 19.8 98 0.2 SW 13 22 7 12 1008.5 1008.3 1.6
16/06:30am 20.1 21.3 19.8 98 0.2 SW 13 17 7 9 1008.0 1007.8 1.6
16/06:00am 20.1 20.5 19.8 98 0.2 SSW 17 22 9 12 1007.5 1007.3 1.6
16/05:30am 20.2 20.6 19.9 98 0.2 SSW 17 24 9 13 1007.2 1007.0 1.6
16/05:23am 20.1 20.1 19.8 98 0.2 SSW 19 28 10 15 1007.0 1006.8 1.6
16/05:00am 20.1 20.5 19.8 98 0.2 SW 17 26 9 14 1006.7 1006.4 1.6
16/04:30am 20.2 19.7 19.9 98 0.2 SSW 22 32 12 17 1006.3 1006.0 1.6
16/04:00am 20.2 19.3 19.9 98 0.2 SW 24 35 13 19 1005.9 1005.6 1.6
16/03:30am 20.2 19.3 19.9 98 0.2 SSW 24 39 13 21 1005.3 1005.0 1.6
16/03:00am 20.4 18.5 20.1 98 0.2 SW 30 43 16 23 1005.5 1005.2 1.6
16/02:30am 20.7 18.3 20.4 98 0.2 SW 33 44 18 24 1005.4 1005.1 1.6
16/02:00am 20.9 19.2 20.6 98 0.2 SW 30 50 16 27 1005.5 1005.2 1.6
16/01:30am 21.4 20.3 21.1 98 0.2 SW 28 44 15 24 1005.5 1005.2 1.6
16/01:00am 21.6 20.9 21.1 97 0.3 SW 26 37 14 20 1005.6 1005.3 1.6
16/12:36am 21.5 20.9 21.2 98 0.2 SW 26 35 14 19 1005.4 1005.1 1.6
16/12:30am 21.5 21.3 21.2 98 0.2 SW 24 33 13 18 1005.5 1005.2 1.6
16/12:00am 21.6 21.4 21.3 98 0.2 SW 24 32 13 17 1005.4 1005.1 1.6
 
Date/Time
EDT
Temp
°C
App
Temp
°C
Dew
Point
°C
Rel
Hum
%
Delta-T
°C
Wind Press
QNH
hPa
Press
MSL
hPa
Rain since
9am
mm
Dir  Spd
km/h
Gust
km/h
Spd
kts
Gust
kts
15/11:30pm 21.8 21.7 21.5 98 0.2 SW 24 33 13 18 1005.2 1004.9 1.6
15/11:00pm 22.1 21.8 21.8 98 0.2 SW 26 35 14 19 1005.3 1005.0 1.6
15/10:30pm 21.5 23.1 20.8 96 0.5 W 13 17 7 9 1005.0 1004.7 1.6
15/10:00pm 21.5 23.5 19.2 87 1.5 ENE 7 11 4 6 1004.3 1004.0 1.6
15/09:30pm 21.9 22.0 19.1 84 1.8 NE 17 24 9 13 1003.6 1003.3 1.6
15/09:00pm 21.7 22.5 19.8 89 1.2 NE 15 22 8 12 1003.8 1003.5 1.6
15/08:30pm 21.7 22.5 19.8 89 1.2 NE 15 22 8 12 1004.2 1003.9 1.6
15/08:00pm 22.2 22.9 20.5 90 1.1 ENE 17 26 9 14 1003.6 1003.3 1.6
15/07:30pm 22.4 22.5 20.3 88 1.4 NE 20 30 11 16 1002.6 1002.3 1.6
15/07:28pm 22.4 22.1 20.3 88 1.4 NE 22 32 12 17 1003.0 1002.7 1.6
15/07:12pm 22.5 21.7 19.3 82 2.0 NE 22 32 12 17 1000.5 1000.3 1.6
15/07:00pm 22.8 22.6 21.3 91 1.0 NNE 24 33 13 18 1002.7 1002.4 1.6
15/06:52pm 23.0 23.0 21.6 92 0.9 NE 24 35 13 19 1003.1 1002.8 1.6
15/06:39pm 23.6 23.6 21.7 89 1.3 NE 24 39 13 21 1005.2 1004.9 1.6
15/06:30pm 23.7 23.8 21.8 89 1.3 NE 24 35 13 19 1003.1 1002.8 1.6
15/06:00pm 23.9 23.8 22.3 91 1.1 NNE 26 33 14 18 1002.4 1002.1 1.6
15/05:30pm 23.6 24.7 23.1 97 0.3 NE 22 32 12 17 1002.7 1002.4 1.6
15/05:15pm 23.4 24.2 23.1 98 0.2 NNE 24 32 13 17 1002.8 1002.5 1.6
15/05:00pm 22.9 22.3 22.6 98 0.2 NNE 30 39 16 21 1002.3 1002.0 1.6
15/04:57pm 23.0 22.8 22.7 98 0.2 NNE 28 39 15 21 1002.2 1001.9 1.6
15/04:30pm 25.4 26.1 22.9 86 1.7 NNE 24 32 13 17 1002.2 1001.9 0.0
15/04:00pm 26.1 26.1 21.7 77 2.9 NNE 24 37 13 20 1002.1 1001.8 0.0
15/03:30pm 26.4 26.5 22.5 79 2.6 NNE 26 35 14 19 1002.4 1002.1 0.0
15/03:00pm 26.9 27.0 23.2 80 2.5 NNE 28 35 15 19 1002.7 1002.4 0.0

Other formats

Comma delimited format used in spreadsheet applications
http://www.bom.gov.au/fwo/IDN60801/IDN60801.94751.axf

JavaScript Object Notation format (JSON) in row-major order
http://www.bom.gov.au/fwo/IDN60801/IDN60801.94751.json

Data quality

Most of these data are generated automatically and are frequently updated. Quality checks on data are not normally performed. It is possible for incorrect values to appear. Refer to information at About Latest Weather Observations and please check the disclaimer before using these data.